Aérodrome :
LOGIN :

S'inscrire | Disclaimer

   EN    FR    IT 

 










Légende :    VFR   VFR Marginal   IFR   IFR Intensif   IFR Très Intensif
Visi : 
Plafond : 
>= 8 km
>= 3000ft
5 à 8 km
1000 à 3000 ft
1500m à 5 km
500 à 1000 ft
800 à 1500m
200 à 500 ft
< 800m
< 200 ft
Symboles :   Orages  Brouillard  Fortes neiges  Fortes précipitations  Vent > 20 kt
SIGMETs :   Divers  Orages  Givrage  Turbulence  Onde Orograph.  Cendres Volcan.







- Altitude de l'aérodrome : 296 ft
- Code IATA : GKE


ETNG - Geilenkirchen

DERNIER METAR :
  • 281150Z 24013G25KT 8000 -SHRA SCT020TCU SCT035 BKN070 21/16 Q0997 TEMPO -SHRA

METARs EXPIRÉS :
  • 281050Z 25010G20KT 9999 SCT017TCU BKN050 BKN100 21/17 Q0997 TEMPO -SHRA
  • 280950Z 19008KT 9999 -RA SCT020 BKN032 21/17 Q0997 TEMPO -RA

TAF TAF ETNG
Valide du 28 à 12h jusqu'au 29 à 03h UTC


281100Z 2812/2903 24010KT 9999 SCT030 BKN100
TEMPO 2812/2816 -RA -SHRA SCT015CB
PROB40
TEMPO 2812/2816 24015G25KT 3000 SHRA TSRA SCT012CB
BECMG 2819/2821 19004KT
Pas de NOTAMs connus pour ce terrain.



MET'MAP, la Météo Aéronautique d'un coup d'oeil ! - Copyright ORBIFLY Décembre 2007 - Disclaimer

ORBIFLY MET'MAP TEAM :

Programmation & Développement : Alexandra Zaïnal
Conception & Développement : Baudouin d'Aumeries
Co-Programmation & Développement : Marc-Olivier Méhu
Soutien technique & logistique : Manuel Goepfert

Contact : metmap@orbifly.com




SOURCES & CREDITS :

   NOAA